createdAt,value
2018-05-01T00:00:40.619Z,6.60
2018-05-01T00:03:08.516Z,6.60
2018-05-01T00:05:36.060Z,6.60
2018-05-01T00:08:03.978Z,6.70
2018-05-01T00:10:31.475Z,6.70
2018-05-01T00:12:58.975Z,6.60
2018-05-01T00:15:26.463Z,6.70
2018-05-01T00:17:54.364Z,6.70
2018-05-01T00:20:21.856Z,6.70
2018-05-01T00:22:49.360Z,6.60
2018-05-01T00:25:16.846Z,6.70
2018-05-01T00:27:44.428Z,6.70
2018-05-01T00:30:12.316Z,6.70
2018-05-01T00:32:40.215Z,6.70
2018-05-01T00:35:07.700Z,6.70
2018-05-01T00:37:35.193Z,6.70
2018-05-01T00:40:02.701Z,6.60
2018-05-01T00:42:30.587Z,6.70
2018-05-01T00:44:58.487Z,6.70
2018-05-01T00:47:25.976Z,6.80
2018-05-01T00:49:53.476Z,6.70
2018-05-01T00:52:32.924Z,6.70
2018-05-01T00:55:00.423Z,6.70
2018-05-01T00:57:28.305Z,6.60
2018-05-01T00:59:56.213Z,6.70
2018-05-01T01:02:23.703Z,6.70
2018-05-01T01:04:51.206Z,6.70
2018-05-01T01:07:18.698Z,6.70
2018-05-01T01:09:46.593Z,6.80
2018-05-01T01:12:14.076Z,6.80
2018-05-01T01:14:41.590Z,6.70
2018-05-01T01:17:09.090Z,6.70
2018-05-01T01:19:36.992Z,6.70
2018-05-01T01:22:04.479Z,6.70
2018-05-01T01:24:31.979Z,6.70
2018-05-01T01:26:59.470Z,6.60
2018-05-01T01:29:27.375Z,6.70
2018-05-01T01:31:55.599Z,6.70
2018-05-01T01:34:23.107Z,6.70
2018-05-01T01:36:50.183Z,6.80
2018-05-01T01:39:17.614Z,6.80
2018-05-01T01:41:44.617Z,6.80
2018-05-01T01:44:11.644Z,6.80
2018-05-01T01:46:38.654Z,6.80
2018-05-01T01:49:05.680Z,6.80
2018-05-01T01:51:33.088Z,6.70
2018-05-01T01:54:00.104Z,6.70
2018-05-01T01:56:27.096Z,6.80
2018-05-01T01:58:54.119Z,6.80
2018-05-01T02:01:21.560Z,6.70
2018-05-01T02:03:48.581Z,6.70
2018-05-01T02:06:15.584Z,6.60
2018-05-01T02:08:42.628Z,6.60
2018-05-01T02:11:09.624Z,6.50
2018-05-01T02:13:37.022Z,6.50
2018-05-01T02:16:04.044Z,6.50
2018-05-01T02:18:31.050Z,6.50
2018-05-01T02:20:58.068Z,6.50
2018-05-01T02:23:25.460Z,6.50
2018-05-01T02:25:52.492Z,6.60
2018-05-01T02:28:19.487Z,6.60
2018-05-01T02:30:46.512Z,6.60
2018-05-01T02:33:13.508Z,6.60
2018-05-01T02:35:40.523Z,6.70
2018-05-01T02:38:07.524Z,6.70
2018-05-01T02:40:34.543Z,6.70
2018-05-01T02:43:01.540Z,6.60
2018-05-01T02:45:28.555Z,6.50
2018-05-01T02:47:55.564Z,6.50
2018-05-01T02:50:22.579Z,6.40
2018-05-01T02:52:49.579Z,6.50
2018-05-01T02:55:16.601Z,6.50
2018-05-01T02:57:43.605Z,6.40
2018-05-01T03:00:10.616Z,6.40
2018-05-01T03:02:37.612Z,6.40
2018-05-01T03:05:04.638Z,6.30
2018-05-01T03:07:31.637Z,6.30
2018-05-01T03:09:58.656Z,6.30
2018-05-01T03:12:26.063Z,6.40
2018-05-01T03:14:53.075Z,6.40
2018-05-01T03:17:20.068Z,6.40
2018-05-01T03:19:47.495Z,6.40
2018-05-01T03:22:14.499Z,6.40
2018-05-01T03:24:41.517Z,6.30
2018-05-01T03:27:08.520Z,6.30
2018-05-01T03:29:35.541Z,6.30
2018-05-01T03:32:02.547Z,6.20
2018-05-01T03:34:29.547Z,6.20
2018-05-01T03:36:56.563Z,6.20
2018-05-01T03:39:23.560Z,6.20
2018-05-01T03:41:50.578Z,6.20
2018-05-01T03:44:17.579Z,6.20
2018-05-01T03:46:44.598Z,6.10
2018-05-01T03:49:11.592Z,6.20
2018-05-01T03:51:38.603Z,6.20
2018-05-01T03:54:06.001Z,6.20
2018-05-01T03:56:33.018Z,6.20
2018-05-01T03:59:00.430Z,6.10
2018-05-01T04:01:27.459Z,6.20
2018-05-01T04:03:54.463Z,6.10
2018-05-01T04:06:21.480Z,6.20
2018-05-01T04:08:48.471Z,6.20
2018-05-01T04:11:15.492Z,6.20
2018-05-01T04:13:42.888Z,6.20
2018-05-01T04:16:09.899Z,6.20
2018-05-01T04:18:36.983Z,6.20
2018-05-01T04:21:04.012Z,6.20
2018-05-01T04:23:31.011Z,6.10
2018-05-01T04:25:58.037Z,6.10
2018-05-01T04:28:25.041Z,6.20
2018-05-01T04:30:52.058Z,6.20
2018-05-01T04:33:19.063Z,6.20
2018-05-01T04:35:46.079Z,6.20
2018-05-01T04:38:13.467Z,6.10
2018-05-01T04:40:40.888Z,6.10
2018-05-01T04:43:07.883Z,6.20
2018-05-01T04:45:35.308Z,6.20
2018-05-01T04:48:02.319Z,6.20
2018-05-01T04:50:29.735Z,6.10
2018-05-01T04:52:56.727Z,6.10
2018-05-01T04:55:24.148Z,6.10
2018-05-01T04:57:51.159Z,6.10
2018-05-01T05:00:18.175Z,6.10
2018-05-01T05:02:45.196Z,6.20
2018-05-01T05:05:12.208Z,6.20
2018-05-01T05:07:39.227Z,6.30
2018-05-01T05:10:06.272Z,6.30
2018-05-01T05:12:33.684Z,6.20
2018-05-01T05:15:00.682Z,6.20
2018-05-01T05:17:27.704Z,6.20
2018-05-01T05:19:54.700Z,6.10
2018-05-01T05:22:21.719Z,6.20
2018-05-01T05:24:48.713Z,6.20
2018-05-01T05:27:15.752Z,6.20
2018-05-01T05:29:42.756Z,6.20
2018-05-01T05:32:10.175Z,6.20
2018-05-01T05:34:37.184Z,6.20
2018-05-01T05:37:04.588Z,6.40
2018-05-01T05:39:31.583Z,6.40
2018-05-01T05:41:58.612Z,6.30
2018-05-01T05:44:25.609Z,6.40
2018-05-01T05:46:52.628Z,6.40
2018-05-01T05:49:19.621Z,6.40
2018-05-01T05:51:46.678Z,6.40
2018-05-01T05:54:13.881Z,6.40
2018-05-01T05:56:42.498Z,6.40
2018-05-01T05:59:09.508Z,6.40
2018-05-01T06:01:36.531Z,6.40
2018-05-01T06:04:03.523Z,6.40
2018-05-01T06:06:30.626Z,6.50
2018-05-01T06:08:57.624Z,6.50
2018-05-01T06:11:24.643Z,6.50
2018-05-01T06:13:51.648Z,6.50
2018-05-01T06:16:18.659Z,6.60
2018-05-01T06:18:45.674Z,6.60
2018-05-01T06:21:12.699Z,6.60
2018-05-01T06:23:39.697Z,6.60
2018-05-01T06:26:06.708Z,6.60
2018-05-01T06:28:33.729Z,6.60
2018-05-01T06:31:00.757Z,6.60
2018-05-01T06:33:27.760Z,6.60
2018-05-01T06:35:55.152Z,6.60
2018-05-01T06:38:22.167Z,6.60
2018-05-01T06:40:49.172Z,6.60
2018-05-01T06:43:16.184Z,6.60
2018-05-01T06:45:43.183Z,6.90
2018-05-01T06:48:10.195Z,6.80
2018-05-01T06:50:37.225Z,6.80
2018-05-01T06:53:04.271Z,6.80
2018-05-01T06:55:31.268Z,6.80
2018-05-01T06:57:58.287Z,6.80
2018-05-01T07:00:25.291Z,7.00
2018-05-01T07:02:52.311Z,7.30
2018-05-01T07:05:21.144Z,7.20
2018-05-01T07:07:48.172Z,7.60
2018-05-01T07:10:15.310Z,7.90
2018-05-01T07:12:42.601Z,7.70
2018-05-01T07:15:09.604Z,7.70
2018-05-01T07:17:36.642Z,7.90
2018-05-01T07:20:03.644Z,8.30
2018-05-01T07:22:31.312Z,8.60
2018-05-01T07:24:58.703Z,8.90
2018-05-01T07:27:25.743Z,8.90
2018-05-01T07:29:53.129Z,9.30
2018-05-01T07:32:20.159Z,9.30
2018-05-01T07:34:47.164Z,9.70
2018-05-01T07:37:14.184Z,9.60
2018-05-01T07:39:41.660Z,10.00
2018-05-01T07:42:09.088Z,10.40
2018-05-01T07:44:36.100Z,10.40
2018-05-01T07:47:03.147Z,10.80
2018-05-01T07:49:30.552Z,10.50
2018-05-01T07:51:57.573Z,10.50
2018-05-01T07:54:24.603Z,10.50
2018-05-01T07:56:51.620Z,10.40
2018-05-01T07:59:18.650Z,10.20
2018-05-01T08:01:46.058Z,9.80
2018-05-01T08:04:13.079Z,9.80
2018-05-01T08:06:40.477Z,9.60
2018-05-01T08:09:07.495Z,9.70
2018-05-01T08:11:34.503Z,9.70
2018-05-01T08:14:01.527Z,10.00
2018-05-01T08:16:28.936Z,10.50
2018-05-01T08:18:56.000Z,10.50
2018-05-01T08:21:23.011Z,10.60
2018-05-01T08:23:50.438Z,10.60
2018-05-01T08:26:17.453Z,10.60
2018-05-01T08:28:44.479Z,11.00
2018-05-01T08:31:11.572Z,11.20
2018-05-01T08:33:38.596Z,11.50
2018-05-01T08:36:05.658Z,11.20
2018-05-01T08:38:32.688Z,11.10
2018-05-01T08:40:59.695Z,10.70
2018-05-01T08:43:27.133Z,10.10
2018-05-01T08:45:54.148Z,10.10
2018-05-01T08:48:21.233Z,10.40
2018-05-01T08:50:48.243Z,10.70
2018-05-01T08:53:15.712Z,11.00
2018-05-01T08:55:42.728Z,11.00
2018-05-01T08:58:09.752Z,11.10
2018-05-01T09:00:37.158Z,11.10
2018-05-01T09:03:04.204Z,11.10
2018-05-01T09:05:31.232Z,11.10
2018-05-01T09:07:58.670Z,11.40
2018-05-01T09:10:25.685Z,11.40
2018-05-01T09:12:52.691Z,11.60
2018-05-01T09:15:19.727Z,11.60
2018-05-01T09:17:46.853Z,11.60
2018-05-01T09:20:14.177Z,11.70
2018-05-01T09:22:41.183Z,11.80
2018-05-01T09:25:08.210Z,11.70
2018-05-01T09:27:35.215Z,11.50
2018-05-01T09:30:02.240Z,11.50
2018-05-01T09:32:29.648Z,11.60
2018-05-01T09:34:56.680Z,11.60
2018-05-01T09:37:24.076Z,11.90
2018-05-01T09:39:51.096Z,11.90
2018-05-01T09:42:18.540Z,11.80
2018-05-01T09:44:45.563Z,11.80
2018-05-01T09:47:12.571Z,11.50
2018-05-01T09:49:39.605Z,11.30
2018-05-01T09:52:06.611Z,11.40
2018-05-01T09:54:34.522Z,11.50
2018-05-01T09:57:02.027Z,11.50
2018-05-01T09:59:29.531Z,11.60
2018-05-01T10:01:57.424Z,11.30
2018-05-01T10:04:24.947Z,11.20
2018-05-01T10:06:52.449Z,11.10
2018-05-01T10:09:20.419Z,12.10
2018-05-01T10:11:47.913Z,12.10
2018-05-01T10:14:15.831Z,12.70
2018-05-01T10:16:43.320Z,12.70
2018-05-01T10:19:10.960Z,12.60
2018-05-01T10:21:38.463Z,12.60
2018-05-01T10:24:05.974Z,12.60
2018-05-01T10:26:33.855Z,12.70
2018-05-01T10:29:01.759Z,12.60
2018-05-01T10:31:29.291Z,12.60
2018-05-01T10:33:56.815Z,12.40
2018-05-01T10:36:24.317Z,12.70
2018-05-01T10:38:51.853Z,12.80
2018-05-01T10:41:19.361Z,12.60
2018-05-01T10:43:46.857Z,12.40
2018-05-01T10:46:14.760Z,12.50
2018-05-01T10:48:42.249Z,12.50
2018-05-01T10:51:09.776Z,12.10
2018-05-01T10:53:37.675Z,12.00
2018-05-01T10:56:05.183Z,12.00
2018-05-01T10:58:32.680Z,12.10
2018-05-01T11:01:00.200Z,12.00
2018-05-01T11:03:27.691Z,12.30
2018-05-01T11:05:55.199Z,12.60
2018-05-01T11:08:22.695Z,12.60
2018-05-01T11:10:50.600Z,12.70
2018-05-01T11:13:18.090Z,12.70
2018-05-01T11:15:45.595Z,12.40
2018-05-01T11:18:13.092Z,12.40
2018-05-01T11:20:40.611Z,12.20
2018-05-01T11:23:08.095Z,12.20
2018-05-01T11:25:35.607Z,12.10
2018-05-01T11:28:03.119Z,12.00
2018-05-01T11:30:30.627Z,11.80
2018-05-01T11:32:58.129Z,11.90
2018-05-01T11:35:25.643Z,12.00
2018-05-01T11:37:53.138Z,12.10
2018-05-01T11:40:21.047Z,12.20
2018-05-01T11:42:48.547Z,12.20
2018-05-01T11:45:16.063Z,12.30
2018-05-01T11:47:43.963Z,12.60
2018-05-01T11:50:11.475Z,12.60
2018-05-01T11:52:38.971Z,12.50
2018-05-01T11:55:06.486Z,12.40
2018-05-01T11:57:33.975Z,12.60
2018-05-01T12:00:01.493Z,12.60
2018-05-01T12:02:29.013Z,12.40
2018-05-01T12:04:56.528Z,12.50
2018-05-01T12:07:24.024Z,12.60
2018-05-01T12:09:51.531Z,12.70
2018-05-01T12:12:19.039Z,12.90
2018-05-01T12:14:46.937Z,12.80
2018-05-01T12:17:14.456Z,12.80
2018-05-01T12:19:42.808Z,12.60
2018-05-01T12:22:10.721Z,12.40
2018-05-01T12:24:38.214Z,12.40
2018-05-01T12:27:05.723Z,12.40
2018-05-01T12:29:33.611Z,12.60
2018-05-01T12:32:01.132Z,12.60
2018-05-01T12:34:28.627Z,12.70
2018-05-01T12:36:56.324Z,12.80
2018-05-01T12:39:23.660Z,12.90
2018-05-01T12:41:51.176Z,12.80
2018-05-01T12:44:18.679Z,12.90
2018-05-01T12:46:46.191Z,12.90
2018-05-01T12:49:14.223Z,12.90
2018-05-01T12:51:41.734Z,12.90
2018-05-01T12:54:09.232Z,13.00
2018-05-01T12:56:36.752Z,12.90
2018-05-01T12:59:04.270Z,12.90
2018-05-01T13:01:33.159Z,13.00
2018-05-01T13:04:01.055Z,13.10
2018-05-01T13:06:28.968Z,13.30
2018-05-01T13:08:56.468Z,13.30
2018-05-01T13:11:23.984Z,13.30
2018-05-01T13:13:51.472Z,13.40
2018-05-01T13:16:18.975Z,13.30
2018-05-01T13:18:46.471Z,13.20
2018-05-01T13:21:14.014Z,13.30
2018-05-01T13:23:41.533Z,13.20
2018-05-01T13:26:09.435Z,13.10
2018-05-01T13:28:36.927Z,13.10
2018-05-01T13:31:04.440Z,12.90
2018-05-01T13:33:32.335Z,12.80
2018-05-01T13:36:00.237Z,12.90
2018-05-01T13:38:27.749Z,12.90
2018-05-01T13:40:55.246Z,13.10
2018-05-01T13:43:23.264Z,13.00
2018-05-01T13:45:50.764Z,12.90
2018-05-01T13:48:18.286Z,12.90
2018-05-01T13:50:45.821Z,12.90
2018-05-01T13:53:13.331Z,12.80
2018-05-01T13:55:40.836Z,13.00
2018-05-01T13:58:08.364Z,13.10
2018-05-01T14:00:36.277Z,13.20
2018-05-01T14:03:03.785Z,13.20
2018-05-01T14:05:31.287Z,13.20
2018-05-01T14:07:58.792Z,13.20
2018-05-01T14:10:26.288Z,13.30
2018-05-01T14:12:53.797Z,13.20
2018-05-01T14:15:21.683Z,13.10
2018-05-01T14:17:49.191Z,13.10
2018-05-01T14:20:16.723Z,13.10
2018-05-01T14:22:44.236Z,13.20
2018-05-01T14:25:11.727Z,13.10
2018-05-01T14:27:39.232Z,13.20
2018-05-01T14:30:06.743Z,13.10
2018-05-01T14:32:34.264Z,13.10
2018-05-01T14:35:02.160Z,13.20
2018-05-01T14:37:29.671Z,13.20
2018-05-01T14:39:57.176Z,13.30
2018-05-01T14:42:25.105Z,13.20
2018-05-01T14:44:52.596Z,13.20
2018-05-01T14:47:20.111Z,13.30
2018-05-01T14:49:48.116Z,13.10
2018-05-01T14:52:15.630Z,13.10
2018-05-01T14:54:43.124Z,13.20
2018-05-01T14:57:10.664Z,13.30
2018-05-01T14:59:38.159Z,13.40
2018-05-01T15:02:05.675Z,13.50
2018-05-01T15:04:33.191Z,13.50
2018-05-01T15:07:00.716Z,13.60
2018-05-01T15:09:28.260Z,13.50
2018-05-01T15:11:56.156Z,13.50
2018-05-01T15:14:23.668Z,13.50
2018-05-01T15:16:51.170Z,13.50
2018-05-01T15:19:18.723Z,13.40
2018-05-01T15:21:46.208Z,13.50
2018-05-01T15:24:13.723Z,13.40
2018-05-01T15:26:41.217Z,13.50
2018-05-01T15:29:08.734Z,13.40
2018-05-01T15:31:36.628Z,13.50
2018-05-01T15:34:04.548Z,13.40
2018-05-01T15:36:32.038Z,13.50
2018-05-01T15:38:59.552Z,13.50
2018-05-01T15:41:27.443Z,13.40
2018-05-01T15:43:54.952Z,13.40
2018-05-01T15:46:22.453Z,13.40
2018-05-01T15:48:50.143Z,13.20
2018-05-01T15:51:18.329Z,13.00
2018-05-01T15:53:46.103Z,13.00
2018-05-01T15:56:14.087Z,13.30
2018-05-01T15:58:41.991Z,13.30
2018-05-01T16:01:09.486Z,13.30
2018-05-01T16:03:36.994Z,13.30
2018-05-01T16:06:04.503Z,13.30
2018-05-01T16:08:32.204Z,13.30
2018-05-01T16:10:59.694Z,13.30
2018-05-01T16:13:27.201Z,13.30
2018-05-01T16:15:55.091Z,13.30
2018-05-01T16:18:22.607Z,13.30
2018-05-01T16:20:50.099Z,13.20
2018-05-01T16:23:17.608Z,13.20
2018-05-01T16:25:45.105Z,13.10
2018-05-01T16:28:12.636Z,13.00
2018-05-01T16:30:40.529Z,13.10
2018-05-01T16:33:08.039Z,13.10
2018-05-01T16:35:35.551Z,13.20
2018-05-01T16:38:03.453Z,13.30
2018-05-01T16:40:31.123Z,13.40
2018-05-01T16:42:59.009Z,13.30
2018-05-01T16:45:26.547Z,13.30
2018-05-01T16:47:54.044Z,13.30
2018-05-01T16:50:22.124Z,13.30
2018-05-01T16:52:50.309Z,13.30
2018-05-01T16:55:18.528Z,13.30
2018-05-01T16:57:46.067Z,13.30
2018-05-01T17:00:14.163Z,13.20
2018-05-01T17:02:41.983Z,13.30
2018-05-01T17:05:09.493Z,13.30
2018-05-01T17:07:36.982Z,13.10
2018-05-01T17:10:04.527Z,13.20
2018-05-01T17:12:32.025Z,13.10
2018-05-01T17:14:59.934Z,13.20
2018-05-01T17:17:27.434Z,13.20
2018-05-01T17:19:55.340Z,13.10
2018-05-01T17:22:23.223Z,13.00
2018-05-01T17:24:50.932Z,13.00
2018-05-01T17:27:18.427Z,13.00
2018-05-01T17:29:45.967Z,13.00
2018-05-01T17:32:13.511Z,13.00
2018-05-01T17:34:41.547Z,13.10
2018-05-01T17:37:09.231Z,13.10
2018-05-01T17:39:36.773Z,13.10
2018-05-01T17:42:04.268Z,13.10
2018-05-01T17:44:31.921Z,13.10
2018-05-01T17:46:59.693Z,13.10
2018-05-01T17:49:27.251Z,12.90
2018-05-01T17:51:54.794Z,12.90
2018-05-01T17:54:22.402Z,12.80
2018-05-01T17:56:50.314Z,12.70
2018-05-01T17:59:18.134Z,12.80
2018-05-01T18:01:46.087Z,12.90
2018-05-01T18:04:13.737Z,12.90
2018-05-01T18:06:41.531Z,13.00
2018-05-01T18:09:09.131Z,12.90
2018-05-01T18:11:36.665Z,12.80
2018-05-01T18:14:04.247Z,12.60
2018-05-01T18:16:31.770Z,12.70
2018-05-01T18:18:59.656Z,12.70
2018-05-01T18:21:27.189Z,12.70
2018-05-01T18:23:54.683Z,12.60
2018-05-01T18:26:22.639Z,12.40
2018-05-01T18:28:50.136Z,12.40
2018-05-01T18:31:18.165Z,12.40
2018-05-01T18:33:45.879Z,12.40
2018-05-01T18:36:13.976Z,12.40
2018-05-01T18:38:41.448Z,12.50
2018-05-01T18:41:09.083Z,12.50
2018-05-01T18:43:36.668Z,12.50
2018-05-01T18:46:04.379Z,12.40
2018-05-01T18:48:32.043Z,12.10
2018-05-01T18:51:00.161Z,11.90
2018-05-01T18:53:28.119Z,11.90
2018-05-01T18:55:56.726Z,11.90
2018-05-01T18:58:24.463Z,11.90
2018-05-01T19:00:52.011Z,11.80
2018-05-01T19:03:19.584Z,11.70
2018-05-01T19:05:47.048Z,11.40
2018-05-01T19:08:14.548Z,11.30
2018-05-01T19:10:42.091Z,11.20
2018-05-01T19:13:09.583Z,11.00
2018-05-01T19:15:37.146Z,10.90
2018-05-01T19:18:04.619Z,10.90
2018-05-01T19:20:32.140Z,10.80
2018-05-01T19:22:59.635Z,10.80
2018-05-01T19:25:27.176Z,10.70
2018-05-01T19:27:54.676Z,10.70
2018-05-01T19:30:22.175Z,10.50
2018-05-01T19:32:49.736Z,10.50
2018-05-01T19:35:17.240Z,10.40
2018-05-01T19:37:45.164Z,10.10
2018-05-01T19:40:12.940Z,10.20
2018-05-01T19:42:40.460Z,10.00
2018-05-01T19:45:07.952Z,9.80
2018-05-01T19:47:35.859Z,9.80
2018-05-01T19:50:03.347Z,9.80
2018-05-01T19:52:30.857Z,9.70
2018-05-01T19:54:58.355Z,9.30
2018-05-01T19:57:25.867Z,9.00
2018-05-01T19:59:53.364Z,9.00
2018-05-01T20:02:20.892Z,9.00
2018-05-01T20:04:48.383Z,9.00
2018-05-01T20:07:15.891Z,9.00
2018-05-01T20:09:43.393Z,8.90
2018-05-01T20:12:10.927Z,8.90
2018-05-01T20:14:38.416Z,9.00
2018-05-01T20:17:06.324Z,8.70
2018-05-01T20:19:33.808Z,8.70
2018-05-01T20:22:01.319Z,8.60
2018-05-01T20:24:28.813Z,8.60
2018-05-01T20:26:56.768Z,8.30
2018-05-01T20:29:24.256Z,8.30
2018-05-01T20:31:52.157Z,8.30
2018-05-01T20:34:19.643Z,8.30
2018-05-01T20:36:47.143Z,8.10
2018-05-01T20:39:14.636Z,8.10
2018-05-01T20:41:42.345Z,7.80
2018-05-01T20:44:09.831Z,7.80
2018-05-01T20:46:37.341Z,8.00
2018-05-01T20:49:04.827Z,8.00
2018-05-01T20:51:32.334Z,7.90
2018-05-01T20:53:59.819Z,8.00
2018-05-01T20:56:27.311Z,7.80
2018-05-01T20:58:54.811Z,7.80
2018-05-01T21:01:22.303Z,7.70
2018-05-01T21:03:49.816Z,7.70
2018-05-01T21:06:17.310Z,7.70
2018-05-01T21:08:44.812Z,7.60
2018-05-01T21:11:12.697Z,7.50
2018-05-01T21:13:40.205Z,7.50
2018-05-01T21:16:07.691Z,7.40
2018-05-01T21:18:35.193Z,7.50
2018-05-01T21:21:03.080Z,7.50
2018-05-01T21:23:30.985Z,7.50
2018-05-01T21:25:58.531Z,7.50
2018-05-01T21:28:26.440Z,7.50
2018-05-01T21:30:53.927Z,7.50
2018-05-01T21:33:21.428Z,7.40
2018-05-01T21:35:48.920Z,7.40
2018-05-01T21:38:16.819Z,7.30
2018-05-01T21:40:44.304Z,7.30
2018-05-01T21:43:11.829Z,7.20
2018-05-01T21:45:39.328Z,7.10
2018-05-01T21:48:06.839Z,7.10
2018-05-01T21:50:34.327Z,7.10
2018-05-01T21:53:01.842Z,7.10
2018-05-01T21:55:29.336Z,7.20
2018-05-01T21:57:56.845Z,7.20
2018-05-01T22:00:24.339Z,7.20
2018-05-01T22:02:52.244Z,7.00
2018-05-01T22:05:20.089Z,7.00
2018-05-01T22:07:48.001Z,6.90
2018-05-01T22:10:15.483Z,7.00
2018-05-01T22:12:42.991Z,6.90
2018-05-01T22:15:10.487Z,6.90
2018-05-01T22:17:38.395Z,6.90
2018-05-01T22:20:05.888Z,6.90
2018-05-01T22:22:33.403Z,6.90
2018-05-01T22:25:00.892Z,6.90
2018-05-01T22:27:28.780Z,6.80
2018-05-01T22:29:56.287Z,6.80
2018-05-01T22:32:23.776Z,6.80
2018-05-01T22:34:51.283Z,6.80
2018-05-01T22:37:19.175Z,6.80
2018-05-01T22:39:46.674Z,6.80
2018-05-01T22:42:14.160Z,6.70
2018-05-01T22:44:41.671Z,6.70
2018-05-01T22:47:09.555Z,6.70
2018-05-01T22:49:37.453Z,6.70
2018-05-01T22:52:04.947Z,6.70
2018-05-01T22:54:32.448Z,6.60
2018-05-01T22:56:59.938Z,6.70
2018-05-01T22:59:27.452Z,6.60
2018-05-01T23:01:54.944Z,6.70
2018-05-01T23:04:22.456Z,6.60
2018-05-01T23:06:50.334Z,6.50
2018-05-01T23:09:18.232Z,6.50
2018-05-01T23:11:45.724Z,6.50
2018-05-01T23:14:13.223Z,6.60
2018-05-01T23:16:40.707Z,6.60
2018-05-01T23:19:08.209Z,6.60
2018-05-01T23:21:35.696Z,6.60
2018-05-01T23:24:03.195Z,6.50
2018-05-01T23:26:30.687Z,6.50
2018-05-01T23:28:58.195Z,6.50
2018-05-01T23:31:25.744Z,6.50
2018-05-01T23:33:53.639Z,6.40
2018-05-01T23:36:21.519Z,6.40
2018-05-01T23:38:49.402Z,6.40
2018-05-01T23:41:16.874Z,6.40
2018-05-01T23:43:44.361Z,6.30
2018-05-01T23:46:11.840Z,6.20
2018-05-01T23:48:39.334Z,6.20
2018-05-01T23:51:06.810Z,6.20
2018-05-01T23:53:34.286Z,6.10
2018-05-01T23:56:01.789Z,6.10
2018-05-01T23:58:29.662Z,6.00
